createdAt,value
2019-02-10T00:00:06.115Z,5.69
2019-02-10T00:01:06.114Z,5.69
2019-02-10T00:02:05.306Z,5.69
2019-02-10T00:03:05.450Z,5.69
2019-02-10T00:04:05.704Z,5.69
2019-02-10T00:05:05.220Z,5.69
2019-02-10T00:06:05.724Z,5.62
2019-02-10T00:07:05.692Z,5.62
2019-02-10T00:08:05.245Z,5.62
2019-02-10T00:09:05.385Z,5.62
2019-02-10T00:10:05.398Z,5.56
2019-02-10T00:11:05.055Z,5.56
2019-02-10T00:12:05.238Z,5.56
2019-02-10T00:13:05.220Z,5.56
2019-02-10T00:14:05.308Z,5.56
2019-02-10T00:15:05.293Z,5.56
2019-02-10T00:16:05.552Z,5.56
2019-02-10T00:17:06.015Z,5.50
2019-02-10T00:18:05.679Z,5.50
2019-02-10T00:19:06.125Z,5.50
2019-02-10T00:20:05.224Z,5.50
2019-02-10T00:21:05.775Z,5.50
2019-02-10T00:22:05.953Z,5.50
2019-02-10T00:23:05.941Z,5.50
2019-02-10T00:24:05.154Z,5.50
2019-02-10T00:25:05.297Z,5.44
2019-02-10T00:26:05.146Z,5.50
2019-02-10T00:27:05.306Z,5.50
2019-02-10T00:28:05.401Z,5.50
2019-02-10T00:29:05.437Z,5.44
2019-02-10T00:30:05.865Z,5.44
2019-02-10T00:31:05.865Z,5.44
2019-02-10T00:32:06.109Z,5.44
2019-02-10T00:33:06.000Z,5.44
2019-02-10T00:34:05.230Z,5.44
2019-02-10T00:35:05.222Z,5.44
2019-02-10T00:36:05.401Z,5.38
2019-02-10T00:37:05.430Z,5.44
2019-02-10T00:38:05.143Z,5.44
2019-02-10T00:39:05.784Z,5.44
2019-02-10T00:40:05.840Z,5.44
2019-02-10T00:41:05.208Z,5.38
2019-02-10T00:42:05.548Z,5.38
2019-02-10T00:43:05.215Z,5.38
2019-02-10T00:44:05.856Z,5.38
2019-02-10T00:45:05.222Z,5.38
2019-02-10T00:46:05.150Z,5.38
2019-02-10T00:47:05.378Z,5.38
2019-02-10T00:48:05.379Z,5.31
2019-02-10T00:49:05.845Z,5.38
2019-02-10T00:50:05.858Z,5.38
2019-02-10T00:51:05.520Z,5.38
2019-02-10T00:52:05.707Z,5.31
2019-02-10T00:53:05.036Z,5.31
2019-02-10T00:54:05.450Z,5.31
2019-02-10T00:55:05.622Z,5.31
2019-02-10T00:56:05.231Z,5.31
2019-02-10T00:57:05.524Z,5.38
2019-02-10T00:58:06.001Z,5.31
2019-02-10T00:59:05.230Z,5.31
2019-02-10T01:00:05.718Z,5.31
2019-02-10T01:01:05.765Z,5.31
2019-02-10T01:02:05.322Z,5.31
2019-02-10T01:03:05.364Z,5.25
2019-02-10T01:04:05.778Z,5.31
2019-02-10T01:05:05.385Z,5.25
2019-02-10T01:06:05.462Z,5.25
2019-02-10T01:07:06.014Z,5.25
2019-02-10T01:08:05.236Z,5.25
2019-02-10T01:09:05.621Z,5.25
2019-02-10T01:10:06.475Z,5.25
2019-02-10T01:11:05.956Z,5.25
2019-02-10T01:12:05.244Z,5.25
2019-02-10T01:13:05.479Z,5.25
2019-02-10T01:14:05.539Z,5.25
2019-02-10T01:15:05.141Z,5.19
2019-02-10T01:16:05.222Z,5.19
2019-02-10T01:17:05.775Z,5.19
2019-02-10T01:18:05.784Z,5.19
2019-02-10T01:19:05.307Z,5.19
2019-02-10T01:20:05.139Z,5.19
2019-02-10T01:21:05.770Z,5.19
2019-02-10T01:22:05.878Z,5.19
2019-02-10T01:23:05.843Z,5.19
2019-02-10T01:24:05.160Z,5.12
2019-02-10T01:25:05.066Z,5.12
2019-02-10T01:26:05.198Z,5.12
2019-02-10T01:27:05.445Z,5.12
2019-02-10T01:28:06.038Z,5.12
2019-02-10T01:29:05.058Z,5.12
2019-02-10T01:30:05.223Z,5.12
2019-02-10T01:31:05.598Z,5.06
2019-02-10T01:32:05.347Z,5.06
2019-02-10T01:33:05.376Z,5.06
2019-02-10T01:34:05.386Z,5.06
2019-02-10T01:35:04.983Z,5.06
2019-02-10T01:36:05.146Z,5.06
2019-02-10T01:37:05.195Z,5.06
2019-02-10T01:38:05.939Z,5.06
2019-02-10T01:39:05.851Z,5.12
2019-02-10T01:40:05.217Z,5.12
2019-02-10T01:41:05.536Z,5.12
2019-02-10T01:42:05.077Z,5.19
2019-02-10T01:43:05.074Z,5.12
2019-02-10T01:44:05.356Z,5.12
2019-02-10T01:45:05.697Z,5.12
2019-02-10T01:46:05.058Z,5.06
2019-02-10T01:47:05.544Z,5.06
2019-02-10T01:48:05.789Z,5.06
2019-02-10T01:49:05.864Z,5.06
2019-02-10T01:50:05.161Z,5.06
2019-02-10T01:51:05.308Z,5.00
2019-02-10T01:52:05.386Z,5.00
2019-02-10T01:53:05.621Z,5.00
2019-02-10T01:54:05.784Z,5.00
2019-02-10T01:55:05.955Z,5.00
2019-02-10T01:56:05.957Z,5.00
2019-02-10T01:57:05.940Z,5.00
2019-02-10T01:58:05.056Z,5.00
2019-02-10T01:59:05.435Z,4.94
2019-02-10T02:00:05.635Z,4.94
2019-02-10T02:01:05.611Z,4.94
2019-02-10T02:02:05.152Z,4.94
2019-02-10T02:03:05.687Z,4.94
2019-02-10T02:04:05.073Z,4.94
2019-02-10T02:05:05.467Z,4.94
2019-02-10T02:06:05.708Z,4.94
2019-02-10T02:07:05.846Z,4.94
2019-02-10T02:08:06.020Z,4.94
2019-02-10T02:09:05.290Z,4.88
2019-02-10T02:10:05.696Z,4.88
2019-02-10T02:11:05.952Z,4.94
2019-02-10T02:12:06.006Z,4.94
2019-02-10T02:13:05.363Z,4.94
2019-02-10T02:14:05.781Z,4.94
2019-02-10T02:15:05.138Z,4.94
2019-02-10T02:16:05.342Z,4.94
2019-02-10T02:17:05.471Z,4.94
2019-02-10T02:18:05.545Z,5.00
2019-02-10T02:19:05.115Z,5.00
2019-02-10T02:20:05.232Z,5.00
2019-02-10T02:21:05.291Z,5.00
2019-02-10T02:22:05.391Z,5.06
2019-02-10T02:23:05.451Z,5.06
2019-02-10T02:24:05.481Z,5.12
2019-02-10T02:25:05.793Z,5.12
2019-02-10T02:26:05.961Z,5.12
2019-02-10T02:27:05.999Z,5.12
2019-02-10T02:28:05.486Z,5.19
2019-02-10T02:29:05.530Z,5.12
2019-02-10T02:30:05.957Z,5.12
2019-02-10T02:31:05.359Z,5.12
2019-02-10T02:32:05.436Z,5.12
2019-02-10T02:33:06.512Z,5.19
2019-02-10T02:34:05.805Z,5.12
2019-02-10T02:35:05.038Z,5.19
2019-02-10T02:36:05.781Z,5.19
2019-02-10T02:37:07.786Z,5.19
2019-02-10T02:38:05.862Z,5.19
2019-02-10T02:39:05.934Z,5.12
2019-02-10T02:40:05.698Z,5.19
2019-02-10T02:41:05.060Z,5.19
2019-02-10T02:42:05.402Z,5.12
2019-02-10T02:43:05.358Z,5.19
2019-02-10T02:44:05.550Z,5.19
2019-02-10T02:45:07.752Z,5.12
2019-02-10T02:46:05.859Z,5.19
2019-02-10T02:47:05.132Z,5.19
2019-02-10T02:48:05.063Z,5.19
2019-02-10T02:49:05.687Z,5.19
2019-02-10T02:50:05.238Z,5.19
2019-02-10T02:51:05.240Z,5.19
2019-02-10T02:52:05.391Z,5.25
2019-02-10T02:53:05.774Z,5.19
2019-02-10T02:54:05.396Z,5.19
2019-02-10T02:55:05.310Z,5.19
2019-02-10T02:56:05.793Z,5.25
2019-02-10T02:57:05.939Z,5.25
2019-02-10T02:58:05.228Z,5.19
2019-02-10T02:59:05.199Z,5.19
2019-02-10T03:00:05.478Z,5.19
2019-02-10T03:01:05.558Z,5.25
2019-02-10T03:02:05.625Z,5.19
2019-02-10T03:03:05.136Z,5.19
2019-02-10T03:04:05.147Z,5.19
2019-02-10T03:05:05.531Z,5.25
2019-02-10T03:06:05.541Z,5.25
2019-02-10T03:07:06.003Z,5.19
2019-02-10T03:08:05.541Z,5.19
2019-02-10T03:09:05.934Z,5.19
2019-02-10T03:10:06.020Z,5.25
2019-02-10T03:11:05.290Z,5.19
2019-02-10T03:12:05.397Z,5.19
2019-02-10T03:13:05.384Z,5.19
2019-02-10T03:14:05.571Z,5.19
2019-02-10T03:15:06.082Z,5.19
2019-02-10T03:16:05.522Z,5.12
2019-02-10T03:17:05.680Z,5.12
2019-02-10T03:18:05.139Z,5.12
2019-02-10T03:19:05.544Z,5.12
2019-02-10T03:20:05.954Z,5.12
2019-02-10T03:21:05.475Z,5.06
2019-02-10T03:22:05.643Z,5.06
2019-02-10T03:23:05.556Z,5.06
2019-02-10T03:24:05.628Z,5.00
2019-02-10T03:25:05.692Z,5.00
2019-02-10T03:26:05.738Z,5.00
2019-02-10T03:27:05.291Z,5.00
2019-02-10T03:28:07.155Z,5.00
2019-02-10T03:29:05.635Z,5.00
2019-02-10T03:30:05.048Z,4.94
2019-02-10T03:31:05.279Z,4.94
2019-02-10T03:32:05.880Z,4.94
2019-02-10T03:33:06.039Z,4.88
2019-02-10T03:34:05.220Z,4.88
2019-02-10T03:35:05.680Z,4.88
2019-02-10T03:36:05.162Z,4.88
2019-02-10T03:37:05.214Z,4.81
2019-02-10T03:38:05.358Z,4.81
2019-02-10T03:39:05.292Z,4.81
2019-02-10T03:40:05.393Z,4.81
2019-02-10T03:41:05.521Z,4.75
2019-02-10T03:42:06.523Z,4.81
2019-02-10T03:43:05.784Z,4.81
2019-02-10T03:44:05.064Z,4.75
2019-02-10T03:45:05.212Z,4.75
2019-02-10T03:46:06.623Z,4.75
2019-02-10T03:47:05.129Z,4.75
2019-02-10T03:48:05.124Z,4.75
2019-02-10T03:49:05.375Z,4.75
2019-02-10T03:50:05.540Z,4.75
2019-02-10T03:51:05.196Z,4.81
2019-02-10T03:52:05.225Z,4.75
2019-02-10T03:53:05.625Z,4.81
2019-02-10T03:54:05.080Z,4.81
2019-02-10T03:55:05.054Z,4.81
2019-02-10T03:56:05.087Z,4.81
2019-02-10T03:57:05.856Z,4.81
2019-02-10T03:58:05.327Z,4.81
2019-02-10T03:59:05.234Z,4.81
2019-02-10T04:00:05.876Z,4.81
2019-02-10T04:01:05.937Z,4.81
2019-02-10T04:02:05.059Z,4.88
2019-02-10T04:03:05.531Z,4.88
2019-02-10T04:04:05.525Z,4.88
2019-02-10T04:05:05.693Z,4.88
2019-02-10T04:06:05.176Z,4.88
2019-02-10T04:07:05.236Z,4.88
2019-02-10T04:08:05.494Z,4.88
2019-02-10T04:09:05.612Z,4.88
2019-02-10T04:10:05.689Z,4.88
2019-02-10T04:11:05.831Z,4.88
2019-02-10T04:12:06.028Z,4.88
2019-02-10T04:13:05.279Z,4.88
2019-02-10T04:14:05.458Z,4.88
2019-02-10T04:15:05.054Z,4.88
2019-02-10T04:16:05.145Z,4.88
2019-02-10T04:17:05.209Z,4.88
2019-02-10T04:18:05.308Z,4.88
2019-02-10T04:19:05.309Z,4.88
2019-02-10T04:20:05.728Z,4.88
2019-02-10T04:21:05.689Z,4.88
2019-02-10T04:22:05.698Z,5.00
2019-02-10T04:23:05.699Z,5.00
2019-02-10T04:24:05.763Z,5.00
2019-02-10T04:25:05.924Z,4.94
2019-02-10T04:26:05.067Z,4.94
2019-02-10T04:27:05.512Z,4.94
2019-02-10T04:28:05.055Z,5.00
2019-02-10T04:29:05.619Z,5.00
2019-02-10T04:30:05.976Z,5.06
2019-02-10T04:31:05.857Z,5.06
2019-02-10T04:32:05.303Z,5.06
2019-02-10T04:33:05.770Z,5.06
2019-02-10T04:34:05.782Z,5.06
2019-02-10T04:35:05.536Z,5.06
2019-02-10T04:36:05.635Z,5.06
2019-02-10T04:37:05.676Z,5.06
2019-02-10T04:38:05.777Z,5.12
2019-02-10T04:39:05.203Z,5.12
2019-02-10T04:40:05.330Z,5.19
2019-02-10T04:41:05.555Z,5.25
2019-02-10T04:42:05.679Z,5.25
2019-02-10T04:43:06.032Z,5.25
2019-02-10T04:44:05.948Z,5.25
2019-02-10T04:45:05.709Z,5.25
2019-02-10T04:46:05.707Z,5.25
2019-02-10T04:47:05.124Z,5.31
2019-02-10T04:48:05.713Z,5.31
2019-02-10T04:49:06.111Z,5.31
2019-02-10T04:50:06.024Z,5.31
2019-02-10T04:51:06.413Z,5.31
2019-02-10T04:52:06.020Z,5.31
2019-02-10T04:53:05.633Z,5.31
2019-02-10T04:54:05.702Z,5.31
2019-02-10T04:55:05.147Z,5.31
2019-02-10T04:56:05.544Z,5.31
2019-02-10T04:57:05.290Z,5.31
2019-02-10T04:58:05.690Z,5.31
2019-02-10T04:59:05.837Z,5.31
2019-02-10T05:00:05.394Z,5.31
2019-02-10T05:01:05.453Z,5.31
2019-02-10T05:02:05.162Z,5.31
2019-02-10T05:03:06.113Z,5.38
2019-02-10T05:04:05.464Z,5.31
2019-02-10T05:05:05.761Z,5.31
2019-02-10T05:06:05.867Z,5.31
2019-02-10T05:07:05.240Z,5.31
2019-02-10T05:08:05.466Z,5.31
2019-02-10T05:09:05.679Z,5.31
2019-02-10T05:10:05.754Z,5.38
2019-02-10T05:11:05.788Z,5.38
2019-02-10T05:12:05.783Z,5.31
2019-02-10T05:13:05.377Z,5.31
2019-02-10T05:14:05.630Z,5.31
2019-02-10T05:15:05.624Z,5.38
2019-02-10T05:16:05.862Z,5.38
2019-02-10T05:17:05.381Z,5.31
2019-02-10T05:18:05.743Z,5.31
2019-02-10T05:19:05.547Z,5.38
2019-02-10T05:20:05.859Z,5.31
2019-02-10T05:21:05.597Z,5.38
2019-02-10T05:22:05.165Z,5.38
2019-02-10T05:23:05.294Z,5.38
2019-02-10T05:24:05.889Z,5.38
2019-02-10T05:25:06.415Z,5.38
2019-02-10T05:26:05.875Z,5.38
2019-02-10T05:27:05.528Z,5.38
2019-02-10T05:28:05.521Z,5.31
2019-02-10T05:29:05.777Z,5.38
2019-02-10T05:30:05.048Z,5.38
2019-02-10T05:31:05.302Z,5.38
2019-02-10T05:32:05.726Z,5.38
2019-02-10T05:33:05.148Z,5.38
2019-02-10T05:34:05.402Z,5.38
2019-02-10T05:35:05.864Z,5.38
2019-02-10T05:36:05.947Z,5.38
2019-02-10T05:37:05.143Z,5.44
2019-02-10T05:38:05.199Z,5.44
2019-02-10T05:39:05.388Z,5.44
2019-02-10T05:40:05.537Z,5.50
2019-02-10T05:41:05.704Z,5.50
2019-02-10T05:42:05.925Z,5.50
2019-02-10T05:43:05.232Z,5.50
2019-02-10T05:44:05.626Z,5.50
2019-02-10T05:45:05.122Z,5.50
2019-02-10T05:46:05.117Z,5.50
2019-02-10T05:47:05.690Z,5.56
2019-02-10T05:48:05.487Z,5.56
2019-02-10T05:49:05.547Z,5.56
2019-02-10T05:50:05.967Z,5.50
2019-02-10T05:51:05.441Z,5.56
2019-02-10T05:52:05.714Z,5.56
2019-02-10T05:53:05.162Z,5.56
2019-02-10T05:54:05.787Z,5.56
2019-02-10T05:55:05.207Z,5.56
2019-02-10T05:56:05.303Z,5.56
2019-02-10T05:57:06.732Z,5.56
2019-02-10T05:58:05.238Z,5.62
2019-02-10T05:59:05.271Z,5.62
2019-02-10T06:00:05.799Z,5.62
2019-02-10T06:01:05.949Z,5.62
2019-02-10T06:02:05.974Z,5.62
2019-02-10T06:03:05.442Z,5.62
2019-02-10T06:04:05.706Z,5.62
2019-02-10T06:05:05.758Z,5.62
2019-02-10T06:06:05.219Z,5.62
2019-02-10T06:07:05.307Z,5.62
2019-02-10T06:08:12.817Z,5.69
2019-02-10T06:09:06.826Z,5.69
2019-02-10T06:10:05.064Z,5.69
2019-02-10T06:11:05.149Z,5.69
2019-02-10T06:12:05.073Z,5.69
2019-02-10T06:13:05.141Z,5.69
2019-02-10T06:14:05.226Z,5.69
2019-02-10T06:15:05.371Z,5.69
2019-02-10T06:16:06.038Z,5.75
2019-02-10T06:17:05.151Z,5.75
2019-02-10T06:18:05.706Z,5.75
2019-02-10T06:19:05.869Z,5.75
2019-02-10T06:20:06.040Z,5.75
2019-02-10T06:21:05.930Z,5.75
2019-02-10T06:22:05.066Z,5.75
2019-02-10T06:23:05.139Z,5.75
2019-02-10T06:24:06.497Z,5.75
2019-02-10T06:25:05.066Z,5.75
2019-02-10T06:26:05.233Z,5.81
2019-02-10T06:27:05.291Z,5.81
2019-02-10T06:28:05.727Z,5.81
2019-02-10T06:29:05.716Z,5.81
2019-02-10T06:30:05.055Z,5.81
2019-02-10T06:31:05.293Z,5.81
2019-02-10T06:32:05.399Z,5.81
2019-02-10T06:33:05.767Z,5.81
2019-02-10T06:34:05.763Z,5.81
2019-02-10T06:35:06.117Z,5.88
2019-02-10T06:36:05.144Z,5.88
2019-02-10T06:37:05.231Z,5.88
2019-02-10T06:38:06.120Z,5.88
2019-02-10T06:39:05.061Z,5.88
2019-02-10T06:40:05.381Z,5.88
2019-02-10T06:41:05.534Z,5.88
2019-02-10T06:42:05.866Z,5.88
2019-02-10T06:43:05.625Z,5.94
2019-02-10T06:44:06.015Z,5.94
2019-02-10T06:45:05.471Z,5.94
2019-02-10T06:46:05.773Z,5.94
2019-02-10T06:47:05.862Z,5.94
2019-02-10T06:48:05.716Z,6.00
2019-02-10T06:49:05.787Z,5.94
2019-02-10T06:50:05.959Z,6.00
2019-02-10T06:51:05.871Z,6.00
2019-02-10T06:52:05.947Z,6.00
2019-02-10T06:53:05.547Z,6.00
2019-02-10T06:54:05.933Z,6.06
2019-02-10T06:55:05.471Z,6.06
2019-02-10T06:56:05.443Z,6.06
2019-02-10T06:57:06.038Z,6.06
2019-02-10T06:58:05.996Z,6.06
2019-02-10T06:59:05.154Z,6.12
2019-02-10T07:00:05.120Z,6.12
2019-02-10T07:01:05.695Z,6.12
2019-02-10T07:02:05.278Z,6.12
2019-02-10T07:03:05.553Z,6.19
2019-02-10T07:04:05.936Z,6.19
2019-02-10T07:05:06.063Z,6.19
2019-02-10T07:06:05.207Z,6.19
2019-02-10T07:07:05.845Z,6.19
2019-02-10T07:08:05.135Z,6.25
2019-02-10T07:09:05.913Z,6.25
2019-02-10T07:10:05.783Z,6.25
2019-02-10T07:11:05.162Z,6.25
2019-02-10T07:12:05.383Z,6.31
2019-02-10T07:13:05.386Z,6.31
2019-02-10T07:14:05.619Z,6.31
2019-02-10T07:15:05.540Z,6.31
2019-02-10T07:16:05.790Z,6.38
2019-02-10T07:17:05.080Z,6.38
2019-02-10T07:18:05.596Z,6.38
2019-02-10T07:19:05.207Z,6.38
2019-02-10T07:20:05.617Z,6.38
2019-02-10T07:21:05.631Z,6.44
2019-02-10T07:22:05.710Z,6.44
2019-02-10T07:23:05.773Z,6.44
2019-02-10T07:24:05.209Z,6.44
2019-02-10T07:25:05.715Z,6.44
2019-02-10T07:26:05.212Z,6.44
2019-02-10T07:27:05.629Z,6.50
2019-02-10T07:28:06.927Z,6.50
2019-02-10T07:29:05.856Z,6.50
2019-02-10T07:30:05.383Z,6.50
2019-02-10T07:31:05.640Z,6.50
2019-02-10T07:32:05.705Z,6.50
2019-02-10T07:33:05.733Z,6.56
2019-02-10T07:34:05.770Z,6.56
2019-02-10T07:35:05.229Z,6.56
2019-02-10T07:36:05.119Z,6.56
2019-02-10T07:37:05.705Z,6.56
2019-02-10T07:38:06.084Z,6.56
2019-02-10T07:39:05.642Z,6.62
2019-02-10T07:40:05.776Z,6.62
2019-02-10T07:41:05.451Z,6.62
2019-02-10T07:42:05.781Z,6.62
2019-02-10T07:43:05.294Z,6.69
2019-02-10T07:44:05.632Z,6.69
2019-02-10T07:45:05.738Z,6.69
2019-02-10T07:46:05.390Z,6.69
2019-02-10T07:47:06.122Z,6.75
2019-02-10T07:48:05.608Z,6.75
2019-02-10T07:49:05.808Z,6.75
2019-02-10T07:50:05.244Z,6.75
2019-02-10T07:51:05.291Z,6.75
2019-02-10T07:52:05.537Z,6.75
2019-02-10T07:53:05.158Z,6.75
2019-02-10T07:54:05.225Z,6.75
2019-02-10T07:55:05.383Z,6.81
2019-02-10T07:56:05.617Z,6.81
2019-02-10T07:57:05.705Z,6.81
2019-02-10T07:58:05.406Z,6.81
2019-02-10T07:59:05.466Z,6.81
2019-02-10T08:00:05.060Z,6.81
2019-02-10T08:01:05.220Z,6.81
2019-02-10T08:02:05.540Z,6.81
2019-02-10T08:03:05.876Z,6.81
2019-02-10T08:04:05.383Z,6.88
2019-02-10T08:05:05.446Z,6.88
2019-02-10T08:06:05.938Z,6.88
2019-02-10T08:07:05.962Z,6.88
2019-02-10T08:08:06.037Z,6.88
2019-02-10T08:09:05.310Z,6.88
2019-02-10T08:10:05.683Z,6.88
2019-02-10T08:11:05.763Z,6.88
2019-02-10T08:12:06.010Z,6.88
2019-02-10T08:13:05.211Z,6.94
2019-02-10T08:14:05.454Z,6.94
2019-02-10T08:15:05.626Z,6.94
2019-02-10T08:16:05.752Z,6.94
2019-02-10T08:17:05.941Z,6.94
2019-02-10T08:18:05.620Z,6.94
2019-02-10T08:19:06.886Z,6.94
2019-02-10T08:20:05.535Z,6.94
2019-02-10T08:21:05.637Z,7.00
2019-02-10T08:22:05.872Z,7.00
2019-02-10T08:23:05.397Z,7.00
2019-02-10T08:24:05.470Z,7.00
2019-02-10T08:25:05.557Z,7.00
2019-02-10T08:26:06.269Z,7.00
2019-02-10T08:27:05.544Z,7.00
2019-02-10T08:28:07.054Z,7.06
2019-02-10T08:29:05.537Z,7.06
2019-02-10T08:30:06.003Z,7.06
2019-02-10T08:31:05.442Z,7.06
2019-02-10T08:32:05.838Z,7.06
2019-02-10T08:33:05.298Z,7.06
2019-02-10T08:34:05.446Z,7.12
2019-02-10T08:35:05.228Z,7.12
2019-02-10T08:36:05.769Z,7.12
2019-02-10T08:37:05.236Z,7.12
2019-02-10T08:38:05.683Z,7.19
2019-02-10T08:39:05.647Z,7.19
2019-02-10T08:40:05.716Z,7.19
2019-02-10T08:41:06.040Z,7.19
2019-02-10T08:42:05.044Z,7.25
2019-02-10T08:43:05.314Z,7.25
2019-02-10T08:44:05.715Z,7.25
2019-02-10T08:45:05.814Z,7.31
2019-02-10T08:46:06.231Z,7.31
2019-02-10T08:47:05.809Z,7.31
2019-02-10T08:48:05.796Z,7.31
2019-02-10T08:49:06.014Z,7.31
2019-02-10T08:50:05.388Z,7.31
2019-02-10T08:51:05.460Z,7.38
2019-02-10T08:52:05.699Z,7.38
2019-02-10T08:53:05.786Z,7.38
2019-02-10T08:54:06.000Z,7.38
2019-02-10T08:55:05.309Z,7.38
2019-02-10T08:56:05.789Z,7.44
2019-02-10T08:57:06.022Z,7.44
2019-02-10T08:58:05.685Z,7.44
2019-02-10T08:59:05.770Z,7.44
2019-02-10T09:00:05.135Z,7.50
2019-02-10T09:01:05.217Z,7.50
2019-02-10T09:02:05.553Z,7.50
2019-02-10T09:03:05.919Z,7.50
2019-02-10T09:04:05.197Z,7.50
2019-02-10T09:05:05.877Z,7.50
2019-02-10T09:06:05.134Z,7.56
2019-02-10T09:07:05.395Z,7.56
2019-02-10T09:08:05.788Z,7.56
2019-02-10T09:09:05.851Z,7.56
2019-02-10T09:10:05.134Z,7.62
2019-02-10T09:11:05.954Z,7.62
2019-02-10T09:12:05.040Z,7.62
2019-02-10T09:13:05.227Z,7.69
2019-02-10T09:14:05.297Z,7.69
2019-02-10T09:15:05.627Z,7.69
2019-02-10T09:16:05.134Z,7.69
2019-02-10T09:17:05.688Z,7.75
2019-02-10T09:18:05.057Z,7.75
2019-02-10T09:19:05.215Z,7.75
2019-02-10T09:20:06.021Z,7.75
2019-02-10T09:21:05.664Z,7.75
2019-02-10T09:22:05.843Z,7.81
2019-02-10T09:23:05.399Z,7.81
2019-02-10T09:24:05.470Z,7.81
2019-02-10T09:25:05.526Z,7.81
2019-02-10T09:26:05.235Z,7.81
2019-02-10T09:27:05.318Z,7.88
2019-02-10T09:28:05.315Z,7.88
2019-02-10T09:29:05.630Z,7.88
2019-02-10T09:30:05.944Z,7.88
2019-02-10T09:31:05.305Z,7.94
2019-02-10T09:32:05.382Z,7.94
2019-02-10T09:33:05.879Z,7.94
2019-02-10T09:34:05.841Z,7.94
2019-02-10T09:35:05.236Z,7.94
2019-02-10T09:36:05.200Z,7.94
2019-02-10T09:37:05.302Z,7.94
2019-02-10T09:38:06.026Z,7.94
2019-02-10T09:39:10.553Z,7.94
2019-02-10T09:40:05.710Z,7.94
2019-02-10T09:41:05.947Z,7.94
2019-02-10T09:42:05.710Z,7.94
2019-02-10T09:43:05.865Z,7.94
2019-02-10T09:44:06.028Z,7.94
2019-02-10T09:45:05.068Z,7.94
2019-02-10T09:46:05.374Z,7.94
2019-02-10T09:47:05.464Z,7.94
2019-02-10T09:48:06.043Z,7.94
2019-02-10T09:49:05.449Z,7.94
2019-02-10T09:50:05.852Z,8.00
2019-02-10T09:51:05.186Z,8.00
2019-02-10T09:52:05.239Z,8.00
2019-02-10T09:53:05.476Z,7.94
2019-02-10T09:54:05.533Z,7.94
2019-02-10T09:55:05.712Z,7.94
2019-02-10T09:56:06.003Z,7.94
2019-02-10T09:57:05.247Z,7.94
2019-02-10T09:58:05.228Z,7.94
2019-02-10T09:59:05.386Z,7.94
2019-02-10T10:00:05.618Z,7.94
2019-02-10T10:01:05.959Z,7.94
2019-02-10T10:02:06.020Z,7.94
2019-02-10T10:03:05.147Z,7.94
2019-02-10T10:04:05.209Z,7.94
2019-02-10T10:05:05.412Z,7.94
2019-02-10T10:06:05.638Z,7.94
2019-02-10T10:07:06.039Z,7.94
2019-02-10T10:08:05.145Z,7.94
2019-02-10T10:09:05.249Z,7.94
2019-02-10T10:10:05.389Z,8.00
2019-02-10T10:11:05.622Z,7.94
2019-02-10T10:12:05.327Z,7.94
2019-02-10T10:13:05.090Z,7.94
2019-02-10T10:14:05.706Z,7.94
2019-02-10T10:15:05.948Z,7.94
2019-02-10T10:16:05.706Z,7.94
2019-02-10T10:17:06.845Z,7.94
2019-02-10T10:18:05.150Z,7.94
2019-02-10T10:19:05.394Z,7.94
2019-02-10T10:20:05.623Z,7.94
2019-02-10T10:21:05.288Z,7.94
2019-02-10T10:22:05.608Z,7.94
2019-02-10T10:23:05.411Z,7.94
2019-02-10T10:24:05.293Z,7.94
2019-02-10T10:25:05.949Z,7.94
2019-02-10T10:26:05.240Z,7.94
2019-02-10T10:27:05.760Z,7.94
2019-02-10T10:28:05.717Z,7.94
2019-02-10T10:29:05.800Z,7.88
2019-02-10T10:30:05.853Z,7.94
2019-02-10T10:31:05.659Z,7.94
2019-02-10T10:32:05.942Z,7.94
2019-02-10T10:33:05.063Z,7.94
2019-02-10T10:34:05.394Z,7.94
2019-02-10T10:35:05.373Z,7.94
2019-02-10T10:36:05.368Z,7.94
2019-02-10T10:37:05.528Z,7.88
2019-02-10T10:38:06.984Z,7.94
2019-02-10T10:39:05.614Z,7.88
2019-02-10T10:40:05.675Z,7.94
2019-02-10T10:41:05.382Z,7.94
2019-02-10T10:42:05.784Z,7.94
2019-02-10T10:43:05.056Z,7.88
2019-02-10T10:44:05.300Z,7.94
2019-02-10T10:45:05.609Z,7.94
2019-02-10T10:46:05.917Z,7.94
2019-02-10T10:47:06.441Z,7.94
2019-02-10T10:48:05.697Z,7.94
2019-02-10T10:49:05.775Z,7.94
2019-02-10T10:50:05.931Z,7.94
2019-02-10T10:51:05.379Z,7.94
2019-02-10T10:52:05.862Z,7.94
2019-02-10T10:53:05.356Z,7.94
2019-02-10T10:54:05.630Z,8.00
2019-02-10T10:55:05.708Z,8.00
2019-02-10T10:56:05.143Z,8.00
2019-02-10T10:57:05.385Z,8.00
2019-02-10T10:58:05.701Z,8.00
2019-02-10T10:59:05.877Z,8.00
2019-02-10T11:00:05.920Z,8.06
2019-02-10T11:01:06.016Z,8.06
2019-02-10T11:02:05.685Z,8.06
2019-02-10T11:03:05.964Z,8.06
2019-02-10T11:04:05.929Z,8.06
2019-02-10T11:05:05.144Z,8.06
2019-02-10T11:06:05.770Z,8.06
2019-02-10T11:07:05.459Z,8.06
2019-02-10T11:08:05.126Z,8.06
2019-02-10T11:09:05.400Z,8.06
2019-02-10T11:10:05.515Z,8.12
2019-02-10T11:11:05.631Z,8.12
2019-02-10T11:12:05.044Z,8.12
2019-02-10T11:13:05.713Z,8.12
2019-02-10T11:14:05.775Z,8.12
2019-02-10T11:15:05.239Z,8.19
2019-02-10T11:16:05.309Z,8.19
2019-02-10T11:17:05.622Z,8.19
2019-02-10T11:18:06.004Z,8.19
2019-02-10T11:19:05.703Z,8.19
2019-02-10T11:20:05.276Z,8.19
2019-02-10T11:21:05.473Z,8.19
2019-02-10T11:22:05.458Z,8.25
2019-02-10T11:23:05.691Z,8.25
2019-02-10T11:24:05.842Z,8.25
2019-02-10T11:25:06.110Z,8.31
2019-02-10T11:26:05.597Z,8.31
2019-02-10T11:27:05.304Z,8.38
2019-02-10T11:28:05.607Z,8.38
2019-02-10T11:29:05.860Z,8.38
2019-02-10T11:30:05.113Z,8.44
2019-02-10T11:31:05.293Z,8.44
2019-02-10T11:32:05.539Z,8.44
2019-02-10T11:33:05.687Z,8.50
2019-02-10T11:34:05.206Z,8.50
2019-02-10T11:35:05.628Z,8.56
2019-02-10T11:36:05.220Z,8.56
2019-02-10T11:37:05.238Z,8.56
2019-02-10T11:38:05.477Z,8.56
2019-02-10T11:39:05.493Z,8.62
2019-02-10T11:40:05.449Z,8.62
2019-02-10T11:41:05.871Z,8.62
2019-02-10T11:42:05.519Z,8.69
2019-02-10T11:43:05.943Z,8.69
2019-02-10T11:44:06.000Z,8.69
2019-02-10T11:45:05.460Z,8.69
2019-02-10T11:46:05.138Z,8.75
2019-02-10T11:47:05.312Z,8.75
2019-02-10T11:48:05.476Z,8.75
2019-02-10T11:49:05.479Z,8.81
2019-02-10T11:50:05.616Z,8.81
2019-02-10T11:51:06.016Z,8.88
2019-02-10T11:52:05.464Z,8.88
2019-02-10T11:53:05.706Z,8.88
2019-02-10T11:54:05.120Z,8.94
2019-02-10T11:55:05.951Z,8.94
2019-02-10T11:56:05.931Z,8.94
2019-02-10T11:57:05.960Z,8.94
2019-02-10T11:58:05.442Z,9.00
2019-02-10T11:59:05.546Z,9.00
2019-02-10T12:00:05.753Z,9.00
2019-02-10T12:01:05.301Z,9.06
2019-02-10T12:02:05.362Z,9.06
2019-02-10T12:03:06.042Z,9.12
2019-02-10T12:04:05.567Z,9.12
2019-02-10T12:05:05.626Z,9.12
2019-02-10T12:06:05.787Z,9.12
2019-02-10T12:07:05.151Z,9.19
2019-02-10T12:08:05.549Z,9.19
2019-02-10T12:09:05.692Z,9.25
2019-02-10T12:10:05.937Z,9.25
2019-02-10T12:11:05.461Z,9.25
2019-02-10T12:12:05.393Z,9.31
2019-02-10T12:13:06.017Z,9.31
2019-02-10T12:14:05.066Z,9.31
2019-02-10T12:15:05.546Z,9.38
2019-02-10T12:16:05.542Z,9.38
2019-02-10T12:17:05.604Z,9.38
2019-02-10T12:18:05.804Z,9.44
2019-02-10T12:19:05.378Z,9.44
2019-02-10T12:20:05.550Z,9.44
2019-02-10T12:21:06.029Z,9.44
2019-02-10T12:22:05.311Z,9.44
2019-02-10T12:23:05.787Z,9.50
2019-02-10T12:24:05.939Z,9.50
2019-02-10T12:25:05.254Z,9.50
2019-02-10T12:26:05.707Z,9.50
2019-02-10T12:27:05.240Z,9.56
2019-02-10T12:28:05.625Z,9.56
2019-02-10T12:29:05.944Z,9.56
2019-02-10T12:30:05.445Z,9.56
2019-02-10T12:31:05.657Z,9.56
2019-02-10T12:32:05.685Z,9.56
2019-02-10T12:33:05.049Z,9.56
2019-02-10T12:34:05.214Z,9.62
2019-02-10T12:35:05.373Z,9.62
2019-02-10T12:36:05.683Z,9.62
2019-02-10T12:37:05.304Z,9.62
2019-02-10T12:38:05.385Z,9.62
2019-02-10T12:39:05.540Z,9.69
2019-02-10T12:40:05.595Z,9.69
2019-02-10T12:41:05.817Z,9.75
2019-02-10T12:42:05.939Z,9.75
2019-02-10T12:43:06.122Z,9.75
2019-02-10T12:44:05.315Z,9.75
2019-02-10T12:45:05.302Z,9.81
2019-02-10T12:46:05.756Z,9.75
2019-02-10T12:47:05.469Z,9.75
2019-02-10T12:48:06.197Z,9.75
2019-02-10T12:49:05.246Z,9.75
2019-02-10T12:50:05.161Z,9.75
2019-02-10T12:51:05.299Z,9.75
2019-02-10T12:52:05.856Z,9.75
2019-02-10T12:53:05.971Z,9.75
2019-02-10T12:54:06.023Z,9.75
2019-02-10T12:55:06.003Z,9.75
2019-02-10T12:56:05.350Z,9.75
2019-02-10T12:57:06.048Z,9.75
2019-02-10T12:58:05.946Z,9.75
2019-02-10T12:59:05.483Z,9.75
2019-02-10T13:00:05.532Z,9.75
2019-02-10T13:01:05.626Z,9.75
2019-02-10T13:02:05.123Z,9.75
2019-02-10T13:03:05.234Z,9.75
2019-02-10T13:04:05.873Z,9.75
2019-02-10T13:05:05.863Z,9.75
2019-02-10T13:06:06.029Z,9.75
2019-02-10T13:07:05.226Z,9.75
2019-02-10T13:08:05.283Z,9.75
2019-02-10T13:09:05.384Z,9.75
2019-02-10T13:10:08.119Z,9.75
2019-02-10T13:11:06.039Z,9.75
2019-02-10T13:12:05.447Z,9.75
2019-02-10T13:13:05.469Z,9.69
2019-02-10T13:14:05.544Z,9.69
2019-02-10T13:15:05.798Z,9.69
2019-02-10T13:16:05.469Z,9.69
2019-02-10T13:17:05.716Z,9.69
2019-02-10T13:18:06.034Z,9.69